ADDS METAR Data INFO
IDs: Format: Raw Decoded Include TAF

Data at: 0328 UTC 16 Dec 2017

PFCL 160256Z AUTO 18010KT 10SM CLR 01/M01 A2902 RMK AO2 SLP820 T00061011 51010 FZRANO TSNO
PFCL 160156Z AUTO 20012KT 10SM BKN060 02/00 A2902 RMK AO2 SLP820 T00170000 FZRANO TSNO
PFCL 160131Z AUTO 19012KT 10SM SCT018 BKN070 01/M01 A2902 RMK AO2 FZRANO TSNO
PFCL 160109Z AUTO 20013KT 10SM SCT020 BKN025 BKN031 02/00 A2901 RMK AO2 FZRANO TSNO
PFCL 160056Z AUTO 17010KT 10SM SCT027 SCT037 01/M01 A2900 RMK AO2 SLP814 T00111006 FZRANO TSNO
PFCL 152356Z AUTO 14009KT 10SM CLR 02/M01 A2899 RMK AO2 SLP810 60000 T00171006 10028 20017 51014 FZRANO TSNO
PFCL 152256Z AUTO 18018KT 10SM FEW040 SCT095 03/01 A2898 RMK AO2 SLP807 T00280006 TSNO
PFCL 152230Z AUTO 18018KT 10SM FEW019 SCT026 OVC080 02/01 A2898 RMK AO2 FZRANO TSNO
PFCL 152156Z AUTO 15015KT 10SM BKN023 OVC029 02/01 A2897 RMK AO2 PK WND 14029/2102 UPB2058E01RAB01E17 SLP805 P0000 T00220011 FZRANO TSNO
PFCL 152056Z AUTO 15023KT 10SM SCT021 BKN026 OVC041 02/01 A2895 RMK AO2 PK WND 13032/2024 RAE56 SLP796 P0000 60000 T00170011 53009 FZRANO TSNO
PFCL 152043Z AUTO 14025KT 10SM -RA SCT026 SCT031 OVC043 02/01 A2894 RMK AO2 PK WND 13032/2024 P0000 FZRANO TSNO
PFCL 152024Z AUTO 13027G32KT 10SM -RA SCT007 BKN026 OVC032 02/01 A2893 RMK AO2 PK WND 13032/2024 P0000 FZRANO TSNO
PFCL 152016Z AUTO 14023G32KT 10SM -RA SCT007 BKN014 OVC026 02/01 A2894 RMK AO2 PK WND 13032/2014 P0000 FZRANO TSNO
PFCL 151956Z AUTO 14025G31KT 3SM -RA BR FEW007 BKN016 OVC026 02/01 A2893 RMK AO2 PK WND 13036/1926 SLP790 P0000 T00170011 FZRANO TSNO
PFCL 151953Z AUTO 14027G31KT 4SM -RA BR SCT007 BKN018 OVC024 02/01 A2893 RMK AO2 PK WND 13036/1926 P0000 FZRANO TSNO
PFCL 151939Z AUTO 14026G32KT 2SM -RA BR SCT009 BKN019 OVC026 02/01 A2893 RMK AO2 PK WND 13036/1926 P0000 FZRANO TSNO
PFCL 151930Z AUTO 14026G36KT 1 3/4SM -RA BR SCT009 BKN019 OVC026 02/01 A2893 RMK AO2 PK WND 13036/1926 P0000 FZRANO TSNO
PFCL 151922Z AUTO 14025G35KT 2SM -RA BR BKN009 OVC019 02/01 A2893 RMK AO2 PK WND 13035/1914 P0000 FZRANO TSNO
PFCL 151856Z AUTO 14028G34KT 8SM -RA OVC009 02/01 A2892 RMK AO2 PK WND 13041/1820 UPB10E12 CIG 007V012 SLP787 P0000 T00170011 FZRANO TSNO
PFCL 151851Z AUTO 13024G35KT 6SM -RA BR OVC009 02/01 A2892 RMK AO2 PK WND 13041/1820 UPB10E12 CIG 007V012 P0000 FZRANO TSNO
PFCL 151556Z AUTO 08020G28KT 10SM -RA OVC027 01/M02 A2901 RMK AO2 PK WND 07030/1504 RAB52SNE52 PRESFR SLP817 P0000 T00061017 FZRANO TSNO
PFCL 151534Z AUTO 08019G29KT 9SM -SN OVC029 01/M02 A2903 RMK AO2 PK WND 07030/1504 P0000 FZRANO TSNO
PFCL 151505Z AUTO 08023G30KT 7SM -SN OVC031 01/M02 A2907 RMK AO2 PK WND 07030/1504 PRESFR P0000 FZRANO TSNO
PFCL 151456Z AUTO 08022G31KT 7SM -SN OVC029 01/M02 A2908 RMK AO2 PK WND 07031/1453 SLP840 P0000 60000 T00061017 56055 FZRANO TSNO
PFCL 151354Z AUTO 07019G27KT 3SM -SN BR BKN019 OVC028 M01/M01 A2916 RMK AO2 PK WND 08027/1350 PRESFR P0000 FZRANO TSNO
PFCL 151311Z AUTO 07018G24KT 2 1/2SM -SN BR SCT013 OVC018 M01/M02 A2922 RMK AO2 PRESFR P0000 FZRANO TSNO
PFCL 151256Z AUTO 07017G26KT 2SM -SN BR OVC013 M01/M02 A2924 RMK AO2 PK WND 08026/1253 PRESFR SLP895 P0000 T10061017 FZRANO TSNO
PFCL 151243Z AUTO 07018G24KT 2SM -SN BR BKN013 OVC019 00/M02 A2927 RMK AO2 P0000 FZRANO TSNO
PFCL 151138Z AUTO 09017G26KT 10SM BKN017 OVC042 00/M02 A2932 RMK AO2 PK WND 08026/1131 FZRANO TSNO
PFCL 151056Z AUTO 08015G22KT 10SM SCT046 M01/M02 A2935 RMK AO2 SLP932 T10061017 FZRANO TSNO
PFCL 150956Z AUTO 08015KT 10SM CLR M01/M02 A2940 RMK AO2 SLP948 T10111022 FZRANO TSNO
PFCL 150856Z AUTO 08013KT 10SM CLR M02/M03 A2943 RMK AO2 SLP958 T10221028 400001028 58031 FZRANO TSNO
PFCL 150756Z AUTO 09013KT 10SM FEW065 M03/M03 A2948 RMK AO2 SLP975 T10281028 FZRANO TSNO
PFCL 150715Z AUTO 10012KT 10SM SCT001 M03/M03 A2949 RMK AO2 FZRANO TSNO
PFCL 150707Z AUTO 09012KT 10SM BKN001 M03/M03 A2949 RMK AO2 FZRANO TSNO
PFCL 150659Z AUTO 09011KT 2SM BR OVC001 M03/M03 A2949 RMK AO2 FZRANO TSNO
PFCL 150656Z AUTO 10010KT 1SM BR OVC001 M02/M03 A2950 RMK AO2 SLP982 T10221028 FZRANO TSNO
PFCL 150639Z AUTO 10011KT 1/2SM FZFG OVC001 M03/M03 A2950 RMK AO2 FZRANO TSNO
PFCL 150625Z AUTO 10011KT 3/4SM BR OVC001 M03/M03 A2951 RMK AO2 FZRANO TSNO
PFCL 150556Z AUTO 09008KT 1 1/2SM BR BKN001 OVC025 M03/M03 A2952 RMK AO2 SLP990 T10281028 10000 21028 56012 FZRANO TSNO
PFCL 150553Z AUTO 10008KT 2SM BR BKN001 OVC025 M03/M03 A2952 RMK AO2 FZRANO TSNO
PFCL 150545Z AUTO 10009KT 1 3/4SM BR BKN001 OVC027 M03/M03 A2952 RMK AO2 FZRANO TSNO
PFCL 150526Z AUTO 10010KT 1 3/4SM BR SCT001 OVC029 M02/M03 A2953 RMK AO2 FZRANO TSNO
PFCL 150456Z AUTO 10008KT 10SM SCT003 BKN027 M02/M02 A2954 RMK AO2 SLP997 T10221022 FZRANO TSNO
PFCL 150446Z AUTO 11008KT 10SM BKN003 BKN027 M02/M02 A2954 RMK AO2 FZRANO TSNO
PFCL 150444Z AUTO 11007KT 10SM SCT003 SCT027 M02/M02 A2955 RMK AO2 FZRANO TSNO
PFCL 150434Z AUTO 10007KT 10SM FEW027 M02/M02 A2954 RMK AO2 FZRANO TSNO
PFCL 150356Z AUTO 11004KT 10SM FEW004 OVC029 M01/M02 A2955 RMK AO2 SLP002 T10111017 FZRANO TSNO
PFCL 150354Z AUTO 11004KT 10SM SCT004 OVC029 M01/M02 A2956 RMK AO2 FZRANO TSNO
PFCL 150256Z AUTO 13006KT 10SM BKN004 OVC029 M02/M02 A2957 RMK AO2 SLP006 T10171017 56005 FZRANO TSNO
PFCL 150236Z AUTO 11005KT 10SM OVC004 M01/M01 A2956 RMK AO2 FZRANO TSNO
PFCL 150228Z AUTO 12005KT 3SM BR OVC002 M01/M01 A2957 RMK AO2 FZRANO TSNO
PFCL 150223Z AUTO 12005KT 1 1/4SM BR OVC002 M01/M01 A2957 RMK AO2 CIG 002V005 FZRANO TSNO
PFCL 150218Z AUTO 12005KT 3/4SM BR OVC002 M01/M01 A2957 RMK AO2 CIG 002V005 FZRANO TSNO
PFCL 150203Z AUTO 11006KT 1/4SM FZFG OVC002 M01/M01 A2957 RMK AO2 FZRANO TSNO
PFCL 150159Z AUTO 11005KT 3/4SM BR OVC002 M01/M01 A2957 RMK AO2 FZRANO TSNO
PFCL 150156Z AUTO 11005KT 1 1/2SM BR OVC002 M01/M01 A2957 RMK AO2 SLP006 T10061011 FZRANO TSNO
PFCL 150136Z AUTO 10004KT 10SM BKN002 OVC035 M01/M01 A2957 RMK AO2 FZRANO TSNO
PFCL 150119Z AUTO 10004KT 10SM FEW002 OVC035 00/M01 A2957 RMK AO2 FZRANO TSNO
PFCL 150056Z AUTO 11005KT 10SM OVC033 00/00 A2957 RMK AO2 SLP007 T00000000 FZRANO TSNO
PFCL 150025Z AUTO 00000KT 10SM FEW003 OVC033 00/00 A2958 RMK AO2 FZRANO TSNO
PFCL 142356Z AUTO 15003KT 10SM OVC037 00/M01 A2958 RMK AO2 SLP011 60000 T00001006 10000 21017 53001 FZRANO TSNO
PFCL 142256Z AUTO 14004KT 10SM FEW029 OVC037 M01/M01 A2958 RMK AO2 SLP011 T10061006 FZRANO TSNO
PFCL 142156Z AUTO 12004KT 10SM BKN033 OVC043 M01/M01 A2957 RMK AO2 SLP008 T10111011 FZRANO TSNO
PFCL 142056Z AUTO 11005KT 10SM FEW023 OVC047 M01/M02 A2958 RMK AO2 SNE03 SLP010 P0000 60000 T10111017 50002 FZRANO TSNO
PFCL 142053Z AUTO 12005KT 10SM SCT023 OVC047 M01/M02 A2958 RMK AO2 SNE03 P0000 FZRANO TSNO
PFCL 141956Z AUTO 13004KT 9SM -SN OVC045 M02/M02 A2958 RMK AO2 SNB45 SLP009 P0000 T10171017 FZRANO TSNO
PFCL 141856Z AUTO 12004KT 10SM OVC035 M01/M02 A2957 RMK AO2 SLP008 T10111017 FZRANO TSNO
PFCL 141756Z AUTO 07003KT 10SM OVC031 M01/M01 A2957 RMK AO2 SLP008 60000 T10111011 10000 21017 58005 FZRANO TSNO
PFCL 141656Z AUTO 00000KT 10SM OVC031 M01/M01 A2958 RMK AO2 SLP010 T10061011 FZRANO TSNO
PFCL 141556Z AUTO 00000KT 10SM OVC033 M01/M01 A2958 RMK AO2 SLP011 T10111011 FZRANO TSNO